Time,TemperatureF,DewpointF,PressureIn,WindDirection,WindDirectionDegrees,WindSpeedMPH,WindSpeedGustMPH,Humidity,HourlyPrecipIn,Conditions,Clouds,dailyrainin,SoftwareType,DateUTC
2013-05-10 10:50:00,69.8,37.8,30.03,NW,315,0.9,0.9,31,0.00,,---,0.00,VWS V14.01,2013-05-10 16:50:00,
2013-05-10 10:51:00,69.8,37.8,30.03,NW,315,6.3,6.3,31,0.00,,---,0.00,VWS V14.01,2013-05-10 16:51:00,
2013-05-10 10:56:00,70.9,39.6,30.03,NE,45,6.0,6.0,32,0.00,,---,0.00,VWS V14.01,2013-05-10 16:56:00,
2013-05-10 11:01:00,71.6,38.6,30.04,North,0,2.5,2.5,30,0.00,,---,0.00,VWS V14.01,2013-05-10 17:01:00,
2013-05-10 11:06:00,72.0,38.0,30.04,WNW,292,2.7,2.7,29,0.00,,---,0.00,VWS V14.01,2013-05-10 17:06:00,
2013-05-10 11:11:00,72.0,38.0,30.04,NNE,22,2.7,2.7,29,0.00,,---,0.00,VWS V14.01,2013-05-10 17:11:00,
2013-05-10 11:16:00,71.6,34.9,30.04,NW,315,1.8,1.8,26,0.00,,---,0.00,VWS V14.01,2013-05-10 17:16:00,
2013-05-10 11:21:00,71.3,37.4,30.04,NW,315,2.0,2.0,29,0.00,,---,0.00,VWS V14.01,2013-05-10 17:21:00,
2013-05-10 11:26:00,71.1,36.4,30.04,WNW,292,2.2,2.2,28,0.00,,---,0.00,VWS V14.01,2013-05-10 17:26:00,
2013-05-10 11:31:00,72.4,36.6,30.04,North,0,1.1,3.4,27,0.00,,---,0.00,VWS V14.01,2013-05-10 17:31:00,
2013-05-10 11:36:00,74.0,35.0,30.04,NW,315,2.0,3.8,24,0.00,,---,0.00,VWS V14.01,2013-05-10 17:36:00,
2013-05-10 11:41:00,75.2,36.0,30.04,WNW,292,2.7,2.9,24,0.00,,---,0.00,VWS V14.01,2013-05-10 17:41:00,
2013-05-10 11:46:00,74.5,33.2,30.04,NE,45,6.9,6.9,22,0.00,,---,0.00,VWS V14.01,2013-05-10 17:46:00,
2013-05-10 11:51:00,71.3,31.6,30.04,WNW,292,3.8,3.8,23,0.00,,---,0.00,VWS V14.01,2013-05-10 17:51:00,
2013-05-10 11:56:00,70.4,32.9,30.04,NW,315,2.0,2.0,25,0.00,,---,0.00,VWS V14.01,2013-05-10 17:56:00,
2013-05-10 12:01:00,70.6,34.1,30.04,WNW,292,2.5,2.5,26,0.00,,---,0.00,VWS V14.01,2013-05-10 18:01:00,
2013-05-10 12:06:00,70.9,31.3,30.04,NNE,22,5.4,5.4,23,0.00,,---,0.00,VWS V14.01,2013-05-10 18:06:00,
2013-05-10 12:11:00,70.7,30.0,30.04,WNW,292,3.4,3.4,22,0.00,,---,0.00,VWS V14.01,2013-05-10 18:11:00,
2013-05-10 12:16:00,70.6,32.1,30.04,WNW,292,4.3,4.3,24,0.00,,---,0.00,VWS V14.01,2013-05-10 18:16:00,
2013-05-10 12:21:00,70.6,33.1,30.04,WNW,292,2.7,2.7,25,0.00,,---,0.00,VWS V14.01,2013-05-10 18:21:00,
2013-05-10 12:26:00,69.8,30.4,30.04,North,0,1.1,1.1,23,0.00,,---,0.00,VWS V14.01,2013-05-10 18:26:00,
2013-05-10 12:31:00,69.5,34.1,30.04,NE,45,2.5,2.5,27,0.00,,---,0.00,VWS V14.01,2013-05-10 18:31:00,
2013-05-10 12:36:00,70.0,33.6,30.04,North,0,1.1,1.1,26,0.00,,---,0.00,VWS V14.01,2013-05-10 18:36:00,
2013-05-10 12:41:00,69.3,32.0,30.04,NW,315,3.4,3.4,25,0.00,,---,0.00,VWS V14.01,2013-05-10 18:41:00,
2013-05-10 12:47:00,69.1,32.8,30.04,East,90,4.7,4.7,26,0.00,,---,0.00,VWS V14.01,2013-05-10 18:47:00,
2013-05-10 12:52:00,69.8,37.0,30.04,NNW,338,1.6,1.6,30,0.00,,---,0.00,VWS V14.01,2013-05-10 18:52:00,
2013-05-10 12:57:00,70.0,31.6,30.04,NW,315,4.3,4.3,24,0.00,,---,0.00,VWS V14.01,2013-05-10 18:57:00,
2013-05-10 13:02:00,70.2,33.7,30.04,WNW,292,0.9,0.9,26,0.00,,---,0.00,VWS V14.01,2013-05-10 19:02:00,
2013-05-10 13:07:00,70.6,33.1,30.04,ENE,68,2.2,2.2,25,0.00,,---,0.00,VWS V14.01,2013-05-10 19:07:00,
2013-05-10 13:12:00,70.2,33.7,30.04,North,0,2.9,2.9,26,0.00,,---,0.00,VWS V14.01,2013-05-10 19:12:00,
2013-05-10 13:17:00,68.8,32.5,30.04,East,90,6.9,6.9,26,0.00,,---,0.00,VWS V14.01,2013-05-10 19:17:00,
2013-05-10 13:22:00,68.8,34.4,30.04,North,0,0.9,0.9,28,0.00,,---,0.00,VWS V14.01,2013-05-10 19:22:00,
2013-05-10 13:27:00,69.5,35.9,30.04,ENE,68,2.5,2.5,29,0.00,,---,0.00,VWS V14.01,2013-05-10 19:27:00,
2013-05-10 13:32:00,69.5,31.2,30.04,NNE,22,7.4,7.4,24,0.00,,---,0.00,VWS V14.01,2013-05-10 19:32:00,
2013-05-10 13:37:00,69.7,33.3,30.04,ENE,68,6.5,6.5,26,0.00,,---,0.00,VWS V14.01,2013-05-10 19:37:00,
2013-05-10 13:42:00,69.8,31.4,30.04,NW,315,2.0,2.0,24,0.00,,---,0.00,VWS V14.01,2013-05-10 19:42:00,
2013-05-10 13:47:00,69.3,33.0,30.04,NNE,22,1.8,1.8,26,0.00,,---,0.00,VWS V14.01,2013-05-10 19:47:00,
2013-05-10 13:52:00,70.2,33.7,30.04,NNE,22,7.6,7.6,26,0.00,,---,0.00,VWS V14.01,2013-05-10 19:52:00,
2013-05-10 13:57:00,70.4,30.9,30.04,ENE,68,6.7,6.7,23,0.00,,---,0.00,VWS V14.01,2013-05-10 19:57:00,
2013-05-10 14:02:00,68.4,32.2,30.04,NNE,22,1.8,1.8,26,0.00,,---,0.00,VWS V14.01,2013-05-10 20:02:00,
2013-05-10 14:07:00,68.8,32.5,30.04,NE,45,10.1,10.1,26,0.00,,---,0.00,VWS V14.01,2013-05-10 20:07:00,
2013-05-10 14:12:00,69.1,32.8,30.04,East,90,3.8,3.8,26,0.00,,---,0.00,VWS V14.01,2013-05-10 20:12:00,
2013-05-10 14:17:00,68.6,33.3,30.04,NNE,22,7.2,7.2,27,0.00,,---,0.00,VWS V14.01,2013-05-10 20:17:00,
2013-05-10 14:22:00,68.9,34.5,30.03,East,90,7.2,7.2,28,0.00,,---,0.00,VWS V14.01,2013-05-10 20:22:00,
2013-05-10 14:27:00,69.1,34.7,30.03,NE,45,10.5,10.5,28,0.00,,---,0.00,VWS V14.01,2013-05-10 20:27:00,
2013-05-10 14:32:00,69.1,35.5,30.04,East,90,7.2,7.2,29,0.00,,---,0.00,VWS V14.01,2013-05-10 20:32:00,
2013-05-10 14:37:00,68.9,35.4,30.03,NNE,22,1.1,1.1,29,0.00,,---,0.00,VWS V14.01,2013-05-10 20:37:00,
2013-05-10 14:42:00,69.1,34.7,30.03,ENE,68,1.1,1.1,28,0.00,,---,0.00,VWS V14.01,2013-05-10 20:42:00,
2013-05-10 14:47:00,69.1,35.5,30.03,WNW,292,3.6,3.6,29,0.00,,---,0.00,VWS V14.01,2013-05-10 20:47:00,
2013-05-10 14:52:00,69.3,35.7,30.04,WNW,292,2.9,2.9,29,0.00,,---,0.00,VWS V14.01,2013-05-10 20:52:00,
2013-05-10 14:57:00,68.2,32.0,30.03,East,90,3.1,3.1,26,0.00,,---,0.00,VWS V14.01,2013-05-10 20:57:00,
2013-05-10 15:02:00,68.6,36.0,30.03,NE,45,4.9,4.9,30,0.00,,---,0.00,VWS V14.01,2013-05-10 21:02:00,
2013-05-10 15:07:00,68.9,36.2,30.03,NE,45,15.0,15.0,30,0.00,,---,0.00,VWS V14.01,2013-05-10 21:07:00,
2013-05-10 15:12:00,69.3,33.0,30.03,NW,315,4.0,4.0,26,0.00,,---,0.00,VWS V14.01,2013-05-10 21:12:00,
2013-05-10 15:17:00,69.1,32.8,30.03,NE,45,4.7,4.7,26,0.00,,---,0.00,VWS V14.01,2013-05-10 21:17:00,
2013-05-10 15:22:00,68.6,34.2,30.03,NNW,338,1.1,1.1,28,0.00,,---,0.00,VWS V14.01,2013-05-10 21:22:00,
2013-05-10 15:27:00,67.9,33.6,30.03,ENE,68,2.2,2.2,28,0.00,,---,0.00,VWS V14.01,2013-05-10 21:27:00,
2013-05-10 15:32:00,67.7,34.3,30.03,NW,315,1.8,1.8,29,0.00,,---,0.00,VWS V14.01,2013-05-10 21:32:00,
2013-05-10 15:37:00,67.1,32.9,30.03,NW,315,1.8,1.8,28,0.00,,---,0.00,VWS V14.01,2013-05-10 21:37:00,
2013-05-10 15:42:00,67.1,32.9,30.04,NNW,338,0.4,0.4,28,0.00,,---,0.00,VWS V14.01,2013-05-10 21:42:00,
2013-05-10 15:47:00,67.0,32.8,30.04,East,90,7.2,7.2,28,0.00,,---,0.00,VWS V14.01,2013-05-10 21:47:00,
2013-05-10 15:52:00,66.6,37.4,30.06,NNW,338,8.1,8.1,34,0.00,,---,0.00,VWS V14.01,2013-05-10 21:52:00,
2013-05-10 15:58:00,64.8,39.3,30.06,NW,315,4.5,4.5,39,0.00,,---,0.00,VWS V14.01,2013-05-10 21:58:00,
2013-05-10 16:03:00,63.0,40.2,30.08,North,0,4.9,5.4,43,0.00,,---,0.00,VWS V14.01,2013-05-10 22:03:00,
2013-05-10 16:08:00,62.3,41.8,30.08,ENE,68,1.8,1.8,47,0.00,,---,0.00,VWS V14.01,2013-05-10 22:08:00,
2013-05-10 16:13:00,61.6,40.6,30.08,WNW,292,0.9,0.9,46,0.00,,---,0.00,VWS V14.01,2013-05-10 22:13:00,
2013-05-10 16:18:00,61.6,40.1,30.08,NW,315,2.2,2.2,45,0.00,,---,0.00,VWS V14.01,2013-05-10 22:18:00,
2013-05-10 16:23:00,61.6,40.1,30.08,North,0,1.3,1.3,45,0.00,,---,0.00,VWS V14.01,2013-05-10 22:23:00,
2013-05-10 16:28:00,61.4,41.0,30.09,North,0,1.1,1.1,47,0.00,,---,0.00,VWS V14.01,2013-05-10 22:28:00,
2013-05-10 16:33:00,60.8,43.1,30.09,WNW,292,3.1,3.1,52,0.00,,---,0.00,VWS V14.01,2013-05-10 22:33:00,
2013-05-10 16:38:00,59.8,42.7,30.09,ENE,68,3.1,3.1,53,0.00,,---,0.00,VWS V14.01,2013-05-10 22:38:00,
2013-05-10 16:43:00,59.4,42.8,30.09,NW,315,1.8,1.8,54,0.00,,---,0.00,VWS V14.01,2013-05-10 22:43:00,
2013-05-10 16:49:00,59.0,42.4,30.09,NW,315,0.9,0.9,54,0.00,,---,0.00,VWS V14.01,2013-05-10 22:49:00,
2013-05-10 16:54:00,59.4,43.7,30.09,WNW,292,0.2,0.2,56,0.00,,---,0.00,VWS V14.01,2013-05-10 22:54:00,
2013-05-10 16:59:00,59.6,43.9,30.09,NW,315,1.8,1.8,56,0.00,,---,0.00,VWS V14.01,2013-05-10 22:59:00,
2013-05-10 17:04:00,59.6,43.4,30.09,ENE,68,1.8,1.8,55,0.00,,---,0.00,VWS V14.01,2013-05-10 23:04:00,
2013-05-10 17:09:00,59.4,43.7,30.09,East,90,2.2,2.2,56,0.00,,---,0.00,VWS V14.01,2013-05-10 23:09:00,
2013-05-10 17:14:00,59.8,43.6,30.09,NW,315,1.6,1.6,55,0.00,,---,0.00,VWS V14.01,2013-05-10 23:14:00,
2013-05-10 17:19:00,59.8,43.1,30.09,WNW,292,2.7,2.7,54,0.00,,---,0.00,VWS V14.01,2013-05-10 23:19:00,
2013-05-10 17:24:00,60.1,43.4,30.09,North,0,2.2,2.2,54,0.00,,---,0.00,VWS V14.01,2013-05-10 23:24:00,
2013-05-10 17:29:00,60.1,43.4,30.09,WNW,292,2.5,2.5,54,0.00,,---,0.00,VWS V14.01,2013-05-10 23:29:00,
2013-05-10 17:34:00,59.8,43.1,30.10,North,0,1.6,1.6,54,0.00,,---,0.00,VWS V14.01,2013-05-10 23:34:00,
2013-05-10 17:39:00,59.0,46.0,30.10,NW,315,1.6,1.6,62,0.00,,---,0.00,VWS V14.01,2013-05-10 23:39:00,
2013-05-10 17:44:00,58.1,45.2,30.10,WNW,292,0.7,0.7,62,0.00,,---,0.00,VWS V14.01,2013-05-10 23:44:00,
2013-05-10 17:49:00,57.1,45.0,30.11,NW,315,0.4,0.4,64,0.00,,---,0.00,VWS V14.01,2013-05-10 23:49:00,
2013-05-10 17:54:00,56.2,44.2,30.11,WNW,292,0.4,0.4,64,0.00,,---,0.00,VWS V14.01,2013-05-10 23:54:00,
2013-05-10 17:59:00,55.6,43.6,30.12,WNW,292,1.1,1.1,64,0.00,,---,0.00,VWS V14.01,2013-05-10 23:59:00,
2013-05-10 18:04:00,55.1,44.7,30.13,WNW,292,2.9,2.9,68,0.00,,---,0.00,VWS V14.01,2013-05-11 00:04:00,
2013-05-10 18:09:00,53.8,45.0,30.13,NW,315,0.9,0.9,72,0.00,,---,0.00,VWS V14.01,2013-05-11 00:09:00,
2013-05-10 18:14:00,52.7,45.7,30.12,NW,315,3.4,3.4,77,0.00,,---,0.00,VWS V14.01,2013-05-11 00:14:00,
2013-05-10 18:19:00,52.2,45.6,30.12,NW,315,1.1,1.1,78,0.00,,---,0.00,VWS V14.01,2013-05-11 00:19:00,
2013-05-10 18:24:00,52.0,45.7,30.11,NW,315,1.3,1.3,79,0.00,,---,0.00,VWS V14.01,2013-05-11 00:24:00,
2013-05-10 18:29:00,52.2,46.2,30.11,WNW,292,0.4,0.4,80,0.00,,---,0.00,VWS V14.01,2013-05-11 00:29:00,
2013-05-10 18:34:00,52.6,46.9,30.11,NNW,338,0.4,0.4,81,0.00,,---,0.00,VWS V14.01,2013-05-11 00:34:00,
2013-05-10 18:39:00,52.6,46.9,30.11,WNW,292,1.1,1.1,81,0.00,,---,0.00,VWS V14.01,2013-05-11 00:39:00,
2013-05-10 18:44:00,52.7,47.4,30.11,NW,315,1.3,1.3,82,0.00,,---,0.00,VWS V14.01,2013-05-11 00:44:00,
2013-05-10 18:49:00,52.6,47.3,30.11,NW,315,0.7,0.7,82,0.00,,---,0.00,VWS V14.01,2013-05-11 00:49:00,
2013-05-10 18:54:00,52.6,47.3,30.11,NW,315,1.6,1.6,82,0.00,,---,0.00,VWS V14.01,2013-05-11 00:54:00,
2013-05-10 18:59:00,52.6,47.3,30.11,NW,315,0.9,0.9,82,0.00,,---,0.00,VWS V14.01,2013-05-11 00:59:00,
2013-05-10 19:04:00,52.6,47.3,30.11,NNW,338,1.8,1.8,82,0.00,,---,0.00,VWS V14.01,2013-05-11 01:04:00,
2013-05-10 19:09:00,52.6,46.9,30.11,NW,315,1.1,1.1,81,0.00,,---,0.00,VWS V14.01,2013-05-11 01:09:00,
2013-05-10 19:14:00,52.4,46.8,30.11,NW,315,1.8,1.8,81,0.00,,---,0.00,VWS V14.01,2013-05-11 01:14:00,
2013-05-10 19:20:00,52.2,46.5,30.11,NW,315,1.1,1.1,81,0.00,,---,0.00,VWS V14.01,2013-05-11 01:20:00,
2013-05-10 19:25:00,52.0,46.0,30.11,NNW,338,1.1,1.1,80,0.00,,---,0.00,VWS V14.01,2013-05-11 01:25:00,
2013-05-10 19:30:00,51.8,45.8,30.12,NW,315,0.9,0.9,80,0.00,,---,23.50,VWS V14.01,2013-05-11 01:30:00,
2013-05-10 19:35:00,51.7,45.7,30.12,NW,315,1.6,1.6,80,0.00,,---,0.00,VWS V14.01,2013-05-11 01:35:00,
2013-05-10 19:40:00,51.3,45.7,30.12,NNW,338,0.9,0.9,81,0.00,,---,0.00,VWS V14.01,2013-05-11 01:40:00,
2013-05-10 19:45:00,51.1,45.5,30.12,NW,315,0.4,0.4,81,0.00,,---,0.00,VWS V14.01,2013-05-11 01:45:00,
2013-05-10 19:50:00,50.9,45.0,30.13,NW,315,0.0,0.0,80,0.00,,---,0.00,VWS V14.01,2013-05-11 01:50:00,
2013-05-10 19:55:00,50.8,44.9,30.13,NW,315,0.0,0.0,80,0.00,,---,0.00,VWS V14.01,2013-05-11 01:55:00,
2013-05-10 20:00:00,50.2,44.6,30.13,NW,315,0.0,0.0,81,0.00,,---,0.00,VWS V14.01,2013-05-11 02:00:00,
2013-05-10 20:05:00,49.9,44.6,30.13,NNW,338,0.2,1.1,82,0.00,,---,0.00,VWS V14.01,2013-05-11 02:05:00,
2013-05-10 20:10:00,49.7,44.8,30.14,NNW,338,0.0,0.0,83,0.00,,---,0.00,VWS V14.01,2013-05-11 02:10:00,
2013-05-10 20:15:00,49.3,44.4,30.14,East,90,1.1,1.1,83,0.00,,---,0.00,VWS V14.01,2013-05-11 02:15:00,
2013-05-10 20:20:00,49.0,44.1,30.14,ENE,68,1.1,1.1,83,0.00,,---,0.00,VWS V14.01,2013-05-11 02:20:00,
2013-05-10 20:25:00,49.0,43.4,30.14,WNW,292,1.1,1.1,81,0.00,,---,0.00,VWS V14.01,2013-05-11 02:25:00,
2013-05-10 20:30:00,49.0,41.4,30.15,WNW,292,2.5,2.5,75,0.00,,---,0.00,VWS V14.01,2013-05-11 02:30:00,
2013-05-10 20:35:00,49.1,40.8,30.15,ENE,68,0.9,0.9,73,0.00,,---,0.00,VWS V14.01,2013-05-11 02:35:00,
2013-05-10 20:40:00,49.1,40.5,30.16,ENE,68,1.6,1.6,72,0.00,,---,0.00,VWS V14.01,2013-05-11 02:40:00,
2013-05-10 20:45:00,49.1,40.5,30.16,NNE,22,0.7,0.7,72,0.00,,---,0.00,VWS V14.01,2013-05-11 02:45:00,
2013-05-10 20:50:00,49.1,39.8,30.16,WNW,292,0.7,0.7,70,0.00,,---,0.00,VWS V14.01,2013-05-11 02:50:00,
2013-05-10 20:55:00,49.0,38.9,30.16,WNW,292,0.4,0.4,68,0.00,,---,0.00,VWS V14.01,2013-05-11 02:55:00,
2013-05-10 21:00:00,48.6,37.8,30.17,North,0,2.5,2.5,66,0.00,,---,0.00,VWS V14.01,2013-05-11 03:00:00,
2013-05-10 21:05:00,48.6,37.4,30.17,NW,315,1.1,1.1,65,0.00,,---,0.00,VWS V14.01,2013-05-11 03:05:00,
2013-05-10 21:10:00,48.2,36.6,30.17,NW,315,0.0,0.0,64,0.00,,---,0.00,VWS V14.01,2013-05-11 03:10:00,
2013-05-10 21:15:00,48.1,36.9,30.17,WNW,292,0.4,0.4,65,0.00,,---,0.00,VWS V14.01,2013-05-11 03:15:00,
2013-05-10 21:20:00,47.9,35.9,30.18,NW,315,1.3,1.3,63,0.00,,---,0.00,VWS V14.01,2013-05-11 03:20:00,
2013-05-10 21:25:00,47.9,35.1,30.18,North,0,0.4,0.4,61,0.00,,---,0.00,VWS V14.01,2013-05-11 03:25:00,
2013-05-10 21:30:00,47.5,34.3,30.18,WNW,292,1.8,1.8,60,0.00,,---,0.00,VWS V14.01,2013-05-11 03:30:00,
2013-05-10 21:35:00,47.5,34.7,30.19,NW,315,0.4,0.4,61,0.00,,---,0.00,VWS V14.01,2013-05-11 03:35:00,
2013-05-10 21:40:00,47.5,34.7,30.19,NNW,338,1.6,1.6,61,0.00,,---,0.00,VWS V14.01,2013-05-11 03:40:00,
2013-05-10 21:45:00,47.2,34.5,30.19,North,0,0.4,0.4,61,0.00,,---,0.00,VWS V14.01,2013-05-11 03:45:00,
2013-05-10 21:50:00,46.8,34.5,30.19,ENE,68,0.0,0.4,62,0.00,,---,0.00,VWS V14.01,2013-05-11 03:50:00,
2013-05-10 21:55:00,46.4,34.1,30.19,WNW,292,0.2,0.2,62,0.00,,---,0.00,VWS V14.01,2013-05-11 03:55:00,
2013-05-10 22:00:00,46.3,33.6,30.19,NW,315,0.7,0.7,61,0.00,,---,0.00,VWS V14.01,2013-05-11 04:00:00,
2013-05-10 22:01:00,46.3,33.6,30.19,NW,315,0.7,0.7,61,0.00,,---,0.00,VWS V14.01,2013-05-11 04:01:00,
2013-05-10 22:02:00,46.1,33.0,30.19,NW,315,0.4,0.4,60,0.00,,---,0.00,VWS V14.01,2013-05-11 04:02:00,
2013-05-10 22:07:00,46.1,33.4,30.19,WNW,292,0.2,0.2,61,0.00,,---,0.00,VWS V14.01,2013-05-11 04:07:00,
2013-05-10 22:12:00,45.7,33.0,30.19,NE,45,1.1,1.1,61,0.00,,---,0.00,VWS V14.01,2013-05-11 04:12:00,
2013-05-10 22:17:00,45.7,32.6,30.19,NW,315,0.0,0.0,60,0.00,,---,0.00,VWS V14.01,2013-05-11 04:17:00,
2013-05-10 22:22:00,45.7,31.8,30.19,North,0,2.5,2.5,58,0.00,,---,0.00,VWS V14.01,2013-05-11 04:22:00,
2013-05-10 22:27:00,45.9,31.1,30.19,WNW,292,1.3,1.3,56,0.00,,---,0.00,VWS V14.01,2013-05-11 04:27:00,
2013-05-10 22:32:00,46.3,30.1,30.19,WNW,292,0.7,0.7,53,0.00,,---,0.00,VWS V14.01,2013-05-11 04:32:00,
2013-05-10 22:37:00,46.4,31.6,30.20,NNW,338,0.0,0.0,56,0.00,,---,0.00,VWS V14.01,2013-05-11 04:37:00,
2013-05-10 22:42:00,46.4,30.7,30.20,NW,315,1.8,1.8,54,0.00,,---,0.00,VWS V14.01,2013-05-11 04:42:00,
2013-05-10 22:47:00,46.4,31.1,30.20,North,0,0.7,0.7,55,0.00,,---,0.00,VWS V14.01,2013-05-11 04:47:00,
2013-05-10 22:52:00,46.4,30.7,30.20,NW,315,0.2,0.2,54,0.00,,---,0.00,VWS V14.01,2013-05-11 04:52:00,
2013-05-10 22:57:00,46.3,30.6,30.20,WNW,292,0.2,0.2,54,0.00,,---,0.00,VWS V14.01,2013-05-11 04:57:00,
2013-05-10 23:02:00,45.9,29.8,30.21,NW,315,0.7,0.7,53,0.00,,---,0.00,VWS V14.01,2013-05-11 05:02:00,
2013-05-10 23:07:00,45.7,29.6,30.21,WNW,292,0.2,0.2,53,0.00,,---,0.00,VWS V14.01,2013-05-11 05:07:00,
2013-05-10 23:12:00,45.4,30.2,30.21,NW,315,0.0,0.0,55,0.00,,---,0.00,VWS V14.01,2013-05-11 05:12:00,
2013-05-10 23:17:00,44.8,30.1,30.21,NW,315,0.0,0.0,56,0.00,,---,0.00,VWS V14.01,2013-05-11 05:17:00,
2013-05-10 23:22:00,44.1,29.9,30.21,NW,315,0.0,0.0,57,0.00,,---,0.00,VWS V14.01,2013-05-11 05:22:00,
2013-05-10 23:27:00,43.7,28.6,30.21,NW,315,0.4,0.4,55,0.00,,---,0.00,VWS V14.01,2013-05-11 05:27:00,
2013-05-10 23:32:00,43.7,28.6,30.22,NW,315,0.0,0.0,55,0.00,,---,0.00,VWS V14.01,2013-05-11 05:32:00,
2013-05-10 23:37:00,43.6,29.0,30.22,NW,315,0.0,0.2,56,0.00,,---,0.00,VWS V14.01,2013-05-11 05:37:00,
2013-05-10 23:42:00,43.4,29.2,30.22,NW,315,0.0,0.0,57,0.00,,---,0.00,VWS V14.01,2013-05-11 05:42:00,
2013-05-10 23:47:00,43.0,28.4,30.22,NW,315,0.0,0.0,56,0.00,,---,0.00,VWS V14.01,2013-05-11 05:47:00,
2013-05-10 23:52:00,42.8,28.2,30.22,NW,315,0.4,0.4,56,0.00,,---,0.00,VWS V14.01,2013-05-11 05:52:00,
2013-05-10 23:57:00,42.5,27.5,30.22,NW,315,0.0,0.0,55,0.00,,---,0.00,VWS V14.01,2013-05-11 05:57:00,